createdAt,value
2023-06-24T00:00:39.625Z,2.00
2023-06-24T00:01:39.420Z,1.60
2023-06-24T00:02:39.401Z,1.80
2023-06-24T00:03:39.408Z,1.60
2023-06-24T00:04:39.375Z,1.80
2023-06-24T00:05:39.366Z,1.90
2023-06-24T00:06:39.367Z,1.80
2023-06-24T00:07:39.344Z,1.90
2023-06-24T00:08:39.330Z,1.90
2023-06-24T00:09:39.322Z,1.90
2023-06-24T00:10:39.301Z,1.90
2023-06-24T00:11:39.353Z,2.00
2023-06-24T00:12:39.291Z,1.90
2023-06-24T00:13:39.284Z,2.10
2023-06-24T00:14:39.275Z,1.90
2023-06-24T00:15:39.254Z,2.10
2023-06-24T00:16:39.236Z,2.40
2023-06-24T00:17:39.324Z,1.80
2023-06-24T00:18:39.226Z,2.40
2023-06-24T00:19:39.284Z,1.90
2023-06-24T00:20:39.195Z,2.00
2023-06-24T00:21:39.200Z,2.50
2023-06-24T00:22:39.182Z,2.30
2023-06-24T00:23:39.178Z,2.30
2023-06-24T00:24:39.150Z,2.30
2023-06-24T00:25:39.148Z,2.40
2023-06-24T00:26:39.145Z,2.20
2023-06-24T00:27:39.136Z,2.20
2023-06-24T00:28:39.129Z,2.10
2023-06-24T00:29:39.107Z,2.50
2023-06-24T00:30:39.099Z,2.30
2023-06-24T00:31:39.108Z,2.60
2023-06-24T00:32:39.115Z,2.50
2023-06-24T00:33:39.064Z,2.80
2023-06-24T00:34:39.070Z,2.80
2023-06-24T00:35:39.053Z,2.60
2023-06-24T00:36:39.037Z,2.60
2023-06-24T00:37:39.025Z,2.20
2023-06-24T00:38:39.023Z,2.30
2023-06-24T00:39:38.996Z,2.60
2023-06-24T00:40:38.978Z,3.00
2023-06-24T00:41:38.995Z,2.60
2023-06-24T00:42:38.984Z,2.50
2023-06-24T00:43:38.954Z,2.10
2023-06-24T00:44:38.937Z,2.50
2023-06-24T00:45:38.930Z,2.30
2023-06-24T00:46:38.928Z,2.30
2023-06-24T00:47:38.910Z,2.30
2023-06-24T00:48:38.895Z,2.00
2023-06-24T00:49:38.890Z,2.30
2023-06-24T00:50:38.869Z,2.00
2023-06-24T00:51:38.872Z,2.00
2023-06-24T00:52:38.872Z,2.50
2023-06-24T00:53:38.851Z,2.30
2023-06-24T00:54:38.825Z,2.40
2023-06-24T00:55:38.849Z,2.50
2023-06-24T00:56:38.826Z,2.20
2023-06-24T00:57:38.812Z,2.20
2023-06-24T00:58:38.785Z,2.10
2023-06-24T00:59:38.778Z,2.10
2023-06-24T01:00:38.777Z,2.50
2023-06-24T01:01:38.869Z,2.20
2023-06-24T01:02:38.812Z,2.30
2023-06-24T01:03:38.780Z,2.10
2023-06-24T01:04:38.729Z,2.40
2023-06-24T01:05:38.724Z,2.30
2023-06-24T01:06:38.724Z,2.20
2023-06-24T01:07:38.696Z,2.20
2023-06-24T01:08:38.699Z,2.00
2023-06-24T01:09:38.687Z,2.60
2023-06-24T01:10:38.667Z,1.90
2023-06-24T01:11:38.648Z,2.50
2023-06-24T01:12:38.658Z,2.00
2023-06-24T01:13:38.634Z,2.40
2023-06-24T01:14:38.637Z,2.30
2023-06-24T01:15:38.612Z,2.30
2023-06-24T01:16:38.614Z,2.20
2023-06-24T01:17:38.620Z,2.40
2023-06-24T01:18:38.582Z,2.10
2023-06-24T01:19:38.578Z,2.70
2023-06-24T01:20:38.570Z,2.10
2023-06-24T01:21:38.544Z,2.50
2023-06-24T01:22:38.538Z,2.10
2023-06-24T01:23:38.537Z,2.00
2023-06-24T01:24:38.537Z,2.30
2023-06-24T01:25:38.507Z,2.30
2023-06-24T01:26:38.489Z,1.90
2023-06-24T01:27:38.488Z,2.40
2023-06-24T01:28:38.494Z,1.90
2023-06-24T01:29:38.461Z,2.00
2023-06-24T01:30:38.446Z,2.00
2023-06-24T01:31:38.467Z,2.20
2023-06-24T01:32:38.494Z,2.50
2023-06-24T01:33:38.519Z,2.30
2023-06-24T01:34:38.411Z,2.10
2023-06-24T01:35:38.405Z,2.00
2023-06-24T01:36:38.387Z,1.90
2023-06-24T01:37:38.386Z,2.40
2023-06-24T01:38:38.432Z,2.20
2023-06-24T01:39:38.348Z,2.30
2023-06-24T01:40:38.347Z,2.40
2023-06-24T01:41:38.337Z,2.40
2023-06-24T01:42:38.346Z,2.00
2023-06-24T01:43:38.310Z,2.30
2023-06-24T01:44:38.300Z,2.20
2023-06-24T01:45:38.288Z,2.10
2023-06-24T01:46:38.338Z,2.30
2023-06-24T01:47:38.333Z,2.10
2023-06-24T01:48:38.308Z,2.40
2023-06-24T01:49:38.247Z,2.30
2023-06-24T01:50:38.243Z,2.10
2023-06-24T01:51:38.239Z,2.00
2023-06-24T01:52:38.231Z,2.00
2023-06-24T01:53:38.198Z,2.10
2023-06-24T01:54:38.191Z,1.90
2023-06-24T01:55:38.187Z,2.00
2023-06-24T01:56:38.188Z,1.90
2023-06-24T01:57:38.172Z,1.90
2023-06-24T01:58:38.157Z,2.00
2023-06-24T01:59:38.144Z,2.10
2023-06-24T02:00:38.187Z,1.90
2023-06-24T02:01:38.169Z,1.90
2023-06-24T02:02:38.148Z,1.90
2023-06-24T02:03:38.138Z,1.90
2023-06-24T02:04:38.100Z,2.10
2023-06-24T02:05:38.158Z,2.10
2023-06-24T02:06:38.114Z,1.90
2023-06-24T02:07:38.066Z,2.30
2023-06-24T02:08:38.053Z,2.00
2023-06-24T02:09:38.033Z,1.80
2023-06-24T02:10:38.050Z,2.00
2023-06-24T02:11:38.008Z,1.90
2023-06-24T02:12:38.006Z,2.10
2023-06-24T02:13:38.005Z,1.90
2023-06-24T02:14:37.990Z,2.10
2023-06-24T02:15:38.040Z,2.20
2023-06-24T02:16:38.011Z,2.10
2023-06-24T02:17:38.047Z,2.00
2023-06-24T02:18:38.017Z,2.00
2023-06-24T02:19:37.954Z,2.40
2023-06-24T02:20:37.958Z,1.90
2023-06-24T02:21:37.901Z,2.00
2023-06-24T02:22:37.898Z,1.70
2023-06-24T02:23:37.882Z,2.10
2023-06-24T02:24:37.890Z,2.10
2023-06-24T02:25:37.899Z,1.90
2023-06-24T02:26:37.860Z,1.90
2023-06-24T02:27:37.840Z,2.00
2023-06-24T02:28:37.833Z,1.80
2023-06-24T02:29:37.846Z,1.90
2023-06-24T02:30:37.833Z,2.10
2023-06-24T02:31:37.803Z,1.80
2023-06-24T02:32:37.765Z,1.90
2023-06-24T02:33:37.748Z,1.90
2023-06-24T02:34:37.733Z,1.70
2023-06-24T02:35:37.884Z,2.30
2023-06-24T02:36:37.696Z,2.10
2023-06-24T02:37:37.681Z,1.90
2023-06-24T02:38:37.689Z,2.20
2023-06-24T02:39:37.659Z,2.00
2023-06-24T02:40:37.699Z,1.80
2023-06-24T02:41:37.646Z,2.20
2023-06-24T02:42:37.652Z,1.90
2023-06-24T02:43:37.775Z,2.30
2023-06-24T02:44:37.610Z,2.10
2023-06-24T02:45:37.684Z,1.90
2023-06-24T02:46:37.643Z,2.20
2023-06-24T02:47:37.635Z,1.90
2023-06-24T02:48:37.582Z,2.10
2023-06-24T02:49:43.579Z,1.90
2023-06-24T02:50:37.547Z,1.90
2023-06-24T02:51:37.558Z,2.00
2023-06-24T02:52:37.544Z,2.10
2023-06-24T02:53:37.513Z,2.20
2023-06-24T02:54:37.512Z,2.30
2023-06-24T02:55:37.671Z,1.80
2023-06-24T02:56:37.485Z,2.30
2023-06-24T02:57:37.523Z,2.10
2023-06-24T02:58:37.466Z,2.60
2023-06-24T02:59:37.448Z,2.00
2023-06-24T03:00:37.451Z,2.20
2023-06-24T03:01:37.491Z,2.00
2023-06-24T03:02:37.532Z,1.80
2023-06-24T03:03:37.462Z,2.30
2023-06-24T03:04:37.401Z,2.10
2023-06-24T03:05:37.681Z,2.30
2023-06-24T03:06:37.409Z,2.30
2023-06-24T03:07:37.386Z,2.10
2023-06-24T03:08:37.367Z,2.00
2023-06-24T03:09:37.349Z,2.20
2023-06-24T03:10:37.391Z,2.40
2023-06-24T03:11:37.349Z,2.10
2023-06-24T03:12:37.326Z,2.10
2023-06-24T03:13:37.333Z,1.90
2023-06-24T03:14:37.326Z,2.00
2023-06-24T03:15:37.442Z,2.20
2023-06-24T03:16:37.293Z,2.20
2023-06-24T03:17:37.307Z,2.20
2023-06-24T03:18:37.260Z,2.30
2023-06-24T03:19:37.235Z,1.80
2023-06-24T03:20:37.248Z,2.10
2023-06-24T03:21:37.236Z,1.80
2023-06-24T03:22:37.209Z,1.90
2023-06-24T03:23:37.194Z,2.10
2023-06-24T03:24:37.194Z,2.00
2023-06-24T03:25:37.303Z,2.00
2023-06-24T03:26:37.166Z,1.90
2023-06-24T03:27:37.151Z,2.40
2023-06-24T03:28:37.164Z,2.50
2023-06-24T03:29:37.149Z,1.90
2023-06-24T03:30:37.139Z,2.20
2023-06-24T03:31:37.139Z,2.30
2023-06-24T03:32:37.198Z,1.70
2023-06-24T03:33:37.101Z,2.20
2023-06-24T03:34:37.099Z,2.10
2023-06-24T03:35:37.332Z,2.00
2023-06-24T03:36:37.077Z,2.20
2023-06-24T03:37:37.059Z,1.90
2023-06-24T03:38:37.050Z,1.90
2023-06-24T03:39:37.044Z,2.00
2023-06-24T03:40:37.049Z,1.80
2023-06-24T03:41:37.063Z,2.00
2023-06-24T03:42:37.029Z,2.20
2023-06-24T03:43:37.018Z,1.70
2023-06-24T03:44:36.987Z,2.30
2023-06-24T03:45:37.291Z,2.20
2023-06-24T03:46:36.963Z,2.20
2023-06-24T03:47:36.968Z,2.10
2023-06-24T03:48:36.946Z,2.10
2023-06-24T03:49:36.947Z,2.00
2023-06-24T03:50:36.911Z,2.00
2023-06-24T03:51:36.903Z,2.00
2023-06-24T03:52:36.898Z,2.40
2023-06-24T03:53:36.896Z,2.20
2023-06-24T03:54:36.868Z,2.00
2023-06-24T03:55:37.137Z,2.00
2023-06-24T03:56:36.849Z,2.20
2023-06-24T03:57:36.877Z,2.20
2023-06-24T03:58:36.858Z,2.10
2023-06-24T03:59:36.823Z,2.20
2023-06-24T04:00:36.823Z,1.90
2023-06-24T04:01:36.853Z,2.10
2023-06-24T04:02:36.822Z,2.20
2023-06-24T04:03:36.794Z,2.10
2023-06-24T04:04:36.759Z,2.30
2023-06-24T04:05:36.861Z,2.00
2023-06-24T04:06:36.813Z,2.20
2023-06-24T04:07:36.756Z,2.30
2023-06-24T04:08:36.715Z,1.90
2023-06-24T04:09:36.722Z,2.30
2023-06-24T04:10:36.703Z,2.30
2023-06-24T04:11:36.691Z,2.20
2023-06-24T04:12:36.686Z,2.70
2023-06-24T04:13:36.658Z,2.20
2023-06-24T04:14:36.665Z,2.20
2023-06-24T04:15:36.871Z,2.00
2023-06-24T04:16:36.666Z,2.50
2023-06-24T04:17:36.631Z,2.40
2023-06-24T04:18:36.618Z,2.30
2023-06-24T04:19:36.593Z,2.20
2023-06-24T04:20:38.299Z,2.30
2023-06-24T04:21:36.589Z,2.30
2023-06-24T04:22:36.567Z,2.30
2023-06-24T04:23:36.559Z,1.90
2023-06-24T04:24:36.547Z,2.40
2023-06-24T04:25:36.751Z,2.40
2023-06-24T04:26:36.537Z,2.40
2023-06-24T04:27:36.555Z,2.20
2023-06-24T04:28:36.543Z,2.60
2023-06-24T04:29:36.538Z,2.30
2023-06-24T04:30:36.493Z,2.40
2023-06-24T04:31:36.517Z,2.10
2023-06-24T04:32:36.601Z,2.50
2023-06-24T04:33:36.479Z,2.50
2023-06-24T04:34:36.455Z,2.20
2023-06-24T04:35:36.919Z,2.60
2023-06-24T04:36:36.435Z,2.40
2023-06-24T04:37:36.470Z,2.30
2023-06-24T04:38:36.424Z,2.00
2023-06-24T04:39:36.383Z,2.10
2023-06-24T04:40:36.395Z,2.30
2023-06-24T04:41:36.361Z,2.20
2023-06-24T04:42:36.357Z,2.30
2023-06-24T04:43:36.358Z,2.20
2023-06-24T04:44:36.368Z,2.70
2023-06-24T04:45:36.611Z,2.70
2023-06-24T04:46:36.342Z,2.00
2023-06-24T04:47:36.352Z,2.40
2023-06-24T04:48:36.298Z,2.80
2023-06-24T04:49:36.299Z,2.40
2023-06-24T04:50:36.536Z,2.10
2023-06-24T04:51:36.263Z,1.90
2023-06-24T04:52:36.259Z,2.50
2023-06-24T04:53:36.340Z,2.30
2023-06-24T04:54:36.252Z,2.60
2023-06-24T04:55:36.463Z,2.50
2023-06-24T04:56:36.222Z,2.30
2023-06-24T04:57:36.209Z,2.30
2023-06-24T04:58:36.229Z,2.30
2023-06-24T04:59:36.203Z,2.40
2023-06-24T05:00:36.177Z,2.30
2023-06-24T05:01:36.190Z,2.30
2023-06-24T05:02:36.161Z,2.30
2023-06-24T05:03:36.144Z,2.60
2023-06-24T05:04:36.152Z,2.40
2023-06-24T05:05:36.652Z,2.30
2023-06-24T05:06:36.163Z,2.20
2023-06-24T05:07:36.155Z,2.30
2023-06-24T05:08:36.136Z,2.50
2023-06-24T05:09:36.077Z,2.30
2023-06-24T05:10:36.073Z,2.10
2023-06-24T05:11:36.053Z,2.50
2023-06-24T05:12:36.187Z,1.90
2023-06-24T05:13:36.031Z,2.30
2023-06-24T05:14:36.077Z,2.40
2023-06-24T05:15:36.291Z,2.10
2023-06-24T05:16:36.008Z,2.40
2023-06-24T05:17:36.063Z,2.30
2023-06-24T05:18:35.979Z,2.30
2023-06-24T05:19:35.973Z,2.50
2023-06-24T05:20:35.967Z,2.20
2023-06-24T05:21:35.963Z,2.50
2023-06-24T05:22:35.977Z,2.20
2023-06-24T05:23:35.927Z,2.60
2023-06-24T05:24:35.921Z,2.30
2023-06-24T05:25:36.144Z,2.30
2023-06-24T05:26:35.912Z,2.20
2023-06-24T05:27:35.908Z,2.40
2023-06-24T05:28:35.877Z,2.30
2023-06-24T05:29:35.898Z,2.10
2023-06-24T05:30:35.868Z,2.40
2023-06-24T05:31:35.867Z,2.30
2023-06-24T05:32:35.859Z,2.20
2023-06-24T05:33:35.834Z,2.40
2023-06-24T05:34:35.813Z,2.20
2023-06-24T05:35:35.984Z,2.40
2023-06-24T05:36:35.803Z,2.20
2023-06-24T05:37:35.786Z,2.30
2023-06-24T05:38:35.789Z,2.50
2023-06-24T05:39:35.984Z,2.50
2023-06-24T05:40:35.776Z,2.40
2023-06-24T05:41:35.739Z,2.50
2023-06-24T05:42:35.728Z,2.10
2023-06-24T05:43:35.737Z,2.30
2023-06-24T05:44:35.747Z,2.20
2023-06-24T05:45:36.064Z,2.70
2023-06-24T05:46:35.753Z,2.30
2023-06-24T05:47:35.757Z,2.30
2023-06-24T05:48:35.663Z,2.40
2023-06-24T05:49:35.706Z,2.40
2023-06-24T05:50:35.700Z,2.30
2023-06-24T05:51:35.646Z,2.30
2023-06-24T05:52:35.625Z,2.20
2023-06-24T05:53:35.626Z,2.50
2023-06-24T05:54:35.610Z,2.40
2023-06-24T05:55:35.977Z,2.20
2023-06-24T05:56:37.673Z,2.30
2023-06-24T05:57:35.581Z,2.10
2023-06-24T05:58:35.597Z,2.10
2023-06-24T05:59:35.588Z,2.10
2023-06-24T06:00:35.541Z,2.10
2023-06-24T06:01:35.534Z,2.50
2023-06-24T06:02:35.704Z,2.30
2023-06-24T06:03:35.530Z,2.10
2023-06-24T06:04:35.515Z,2.30
2023-06-24T06:05:35.758Z,2.10
2023-06-24T06:06:35.481Z,2.20
2023-06-24T06:07:35.477Z,2.40
2023-06-24T06:08:35.479Z,2.00
2023-06-24T06:09:35.477Z,2.00
2023-06-24T06:10:35.433Z,2.20
2023-06-24T06:11:35.449Z,2.40
2023-06-24T06:12:35.447Z,2.10
2023-06-24T06:13:35.435Z,2.00
2023-06-24T06:14:35.435Z,2.10
2023-06-24T06:15:35.672Z,2.00
2023-06-24T06:16:35.376Z,2.20
2023-06-24T06:17:35.522Z,2.00
2023-06-24T06:18:35.357Z,1.90
2023-06-24T06:19:35.362Z,1.90
2023-06-24T06:20:35.390Z,2.20
2023-06-24T06:21:35.338Z,2.00
2023-06-24T06:22:35.345Z,2.00
2023-06-24T06:23:35.352Z,2.10
2023-06-24T06:24:35.303Z,1.80
2023-06-24T06:25:35.578Z,1.70
2023-06-24T06:26:35.309Z,1.80
2023-06-24T06:27:35.282Z,1.90
2023-06-24T06:28:35.276Z,1.80
2023-06-24T06:29:35.275Z,1.80
2023-06-24T06:30:35.253Z,2.00
2023-06-24T06:31:35.264Z,1.90
2023-06-24T06:32:35.266Z,1.90
2023-06-24T06:33:35.233Z,1.90
2023-06-24T06:34:35.220Z,1.90
2023-06-24T06:35:35.531Z,1.70
2023-06-24T06:36:35.215Z,1.60
2023-06-24T06:37:35.169Z,1.70
2023-06-24T06:38:35.201Z,1.60
2023-06-24T06:39:35.157Z,2.10
2023-06-24T06:40:35.177Z,1.90
2023-06-24T06:41:35.162Z,1.60
2023-06-24T06:42:35.122Z,1.60
2023-06-24T06:43:35.130Z,1.60
2023-06-24T06:44:35.128Z,2.00
2023-06-24T06:45:35.396Z,1.70
2023-06-24T06:46:35.108Z,1.90
2023-06-24T06:47:35.109Z,1.90
2023-06-24T06:48:35.059Z,1.70
2023-06-24T06:49:35.058Z,2.00
2023-06-24T06:50:35.050Z,1.50
2023-06-24T06:51:35.035Z,1.80
2023-06-24T06:52:35.016Z,1.80
2023-06-24T06:53:35.024Z,1.70
2023-06-24T06:54:35.019Z,1.80
2023-06-24T06:55:35.305Z,1.60
2023-06-24T06:56:34.997Z,1.70
2023-06-24T06:57:34.980Z,1.80
2023-06-24T06:58:34.968Z,1.60
2023-06-24T06:59:34.993Z,1.60
2023-06-24T07:00:34.957Z,1.90
2023-06-24T07:01:35.001Z,2.10
2023-06-24T07:02:34.974Z,1.80
2023-06-24T07:03:34.926Z,1.90
2023-06-24T07:04:34.921Z,1.90
2023-06-24T07:05:36.776Z,1.70
2023-06-24T07:06:35.046Z,1.90
2023-06-24T07:07:34.949Z,1.70
2023-06-24T07:08:34.980Z,1.70
2023-06-24T07:09:34.891Z,1.70
2023-06-24T07:10:34.897Z,1.80
2023-06-24T07:11:34.940Z,2.10
2023-06-24T07:12:34.913Z,1.80
2023-06-24T07:13:34.891Z,2.00
2023-06-24T07:14:34.795Z,1.90
2023-06-24T07:15:35.237Z,1.90
2023-06-24T07:16:34.814Z,1.80
2023-06-24T07:17:34.804Z,1.80
2023-06-24T07:18:34.786Z,1.90
2023-06-24T07:19:34.748Z,2.20
2023-06-24T07:20:34.737Z,1.80
2023-06-24T07:21:34.748Z,1.90
2023-06-24T07:22:34.772Z,1.70
2023-06-24T07:23:34.727Z,1.50
2023-06-24T07:24:34.710Z,1.90
2023-06-24T07:25:34.928Z,2.00
2023-06-24T07:26:34.689Z,1.90
2023-06-24T07:27:34.684Z,1.80
2023-06-24T07:28:34.698Z,1.90
2023-06-24T07:29:34.653Z,2.00
2023-06-24T07:30:34.667Z,2.10
2023-06-24T07:31:34.676Z,1.90
2023-06-24T07:32:34.642Z,1.80
2023-06-24T07:33:34.628Z,2.10
2023-06-24T07:34:34.655Z,2.00
2023-06-24T07:35:35.105Z,1.70
2023-06-24T07:36:34.594Z,1.90
2023-06-24T07:37:34.632Z,1.80
2023-06-24T07:38:34.623Z,1.70
2023-06-24T07:39:34.614Z,1.80
2023-06-24T07:40:34.543Z,1.80
2023-06-24T07:41:34.602Z,2.10
2023-06-24T07:42:34.513Z,1.80
2023-06-24T07:43:34.514Z,1.50
2023-06-24T07:44:34.505Z,2.00
2023-06-24T07:45:34.720Z,1.60
2023-06-24T07:46:34.531Z,2.00
2023-06-24T07:47:34.507Z,1.70
2023-06-24T07:48:34.461Z,1.70
2023-06-24T07:49:34.451Z,1.90
2023-06-24T07:50:34.501Z,2.00
2023-06-24T07:51:34.449Z,1.80
2023-06-24T07:52:34.415Z,1.80
2023-06-24T07:53:34.421Z,1.80
2023-06-24T07:54:34.394Z,1.50
2023-06-24T07:55:34.810Z,1.70
2023-06-24T07:56:34.370Z,1.90
2023-06-24T07:57:34.394Z,1.70
2023-06-24T07:58:34.362Z,1.90
2023-06-24T07:59:34.351Z,1.80
2023-06-24T08:00:34.353Z,1.90
2023-06-24T08:01:34.349Z,1.70
2023-06-24T08:02:34.341Z,1.80
2023-06-24T08:03:34.442Z,1.60
2023-06-24T08:04:34.373Z,1.80
2023-06-24T08:05:34.577Z,1.80
2023-06-24T08:06:34.272Z,2.00
2023-06-24T08:07:34.266Z,2.10
2023-06-24T08:08:34.263Z,1.70
2023-06-24T08:09:34.294Z,1.70
2023-06-24T08:10:34.255Z,1.80
2023-06-24T08:11:34.231Z,1.70
2023-06-24T08:12:34.227Z,1.80
2023-06-24T08:13:34.226Z,1.80
2023-06-24T08:14:34.217Z,1.90
2023-06-24T08:15:34.429Z,1.50
2023-06-24T08:16:34.183Z,1.90
2023-06-24T08:17:34.206Z,1.80
2023-06-24T08:18:34.180Z,1.80
2023-06-24T08:19:34.167Z,1.70
2023-06-24T08:20:34.140Z,1.60
2023-06-24T08:21:34.154Z,1.90
2023-06-24T08:22:34.117Z,1.80
2023-06-24T08:23:34.146Z,2.80
2023-06-24T08:24:34.113Z,1.50
2023-06-24T08:25:34.683Z,1.60
2023-06-24T08:26:34.096Z,1.90
2023-06-24T08:27:34.110Z,1.70
2023-06-24T08:28:34.102Z,1.60
2023-06-24T08:29:34.057Z,1.60
2023-06-24T08:30:34.078Z,1.40
2023-06-24T08:31:34.030Z,1.60
2023-06-24T08:32:34.087Z,1.60
2023-06-24T08:33:34.037Z,1.70
2023-06-24T08:34:34.003Z,1.70
2023-06-24T08:35:34.228Z,1.50
2023-06-24T08:36:34.015Z,1.50
2023-06-24T08:37:33.989Z,1.80
2023-06-24T08:38:33.976Z,1.90
2023-06-24T08:39:33.961Z,1.70
2023-06-24T08:40:33.944Z,1.70
2023-06-24T08:41:33.936Z,1.90
2023-06-24T08:42:33.963Z,1.70
2023-06-24T08:43:33.934Z,1.60
2023-06-24T08:44:33.904Z,1.90
2023-06-24T08:45:34.135Z,1.60
2023-06-24T08:46:33.895Z,1.90
2023-06-24T08:47:34.063Z,1.80
2023-06-24T08:48:34.033Z,1.70
2023-06-24T08:49:33.995Z,1.60
2023-06-24T08:50:33.849Z,1.50
2023-06-24T08:51:33.882Z,1.80
2023-06-24T08:52:33.837Z,1.40
2023-06-24T08:53:33.925Z,1.70
2023-06-24T08:54:33.826Z,1.60
2023-06-24T08:55:34.253Z,1.70
2023-06-24T08:56:33.808Z,1.60
2023-06-24T08:57:33.777Z,1.50
2023-06-24T08:58:33.774Z,1.50
2023-06-24T08:59:33.776Z,1.70
2023-06-24T09:00:33.752Z,1.70
2023-06-24T09:01:33.790Z,1.60
2023-06-24T09:02:33.766Z,1.90
2023-06-24T09:03:33.854Z,1.70
2023-06-24T09:04:33.702Z,1.70
2023-06-24T09:05:33.977Z,1.80
2023-06-24T09:06:33.681Z,1.90
2023-06-24T09:07:33.848Z,1.70
2023-06-24T09:08:33.664Z,1.60
2023-06-24T09:09:33.680Z,1.60
2023-06-24T09:10:33.746Z,1.80
2023-06-24T09:11:33.631Z,1.70
2023-06-24T09:12:33.625Z,1.40
2023-06-24T09:13:33.615Z,1.80
2023-06-24T09:14:33.614Z,1.60
2023-06-24T09:15:33.810Z,1.80
2023-06-24T09:16:33.585Z,1.70
2023-06-24T09:17:33.617Z,1.50
2023-06-24T09:18:33.609Z,1.40
2023-06-24T09:19:33.612Z,1.70
2023-06-24T09:20:33.549Z,1.70
2023-06-24T09:21:33.563Z,1.60
2023-06-24T09:22:33.571Z,1.60
2023-06-24T09:23:33.531Z,1.60
2023-06-24T09:24:33.511Z,1.60
2023-06-24T09:25:33.904Z,1.60
2023-06-24T09:26:33.538Z,1.50
2023-06-24T09:27:33.506Z,1.70
2023-06-24T09:28:33.486Z,1.90
2023-06-24T09:29:33.489Z,1.60
2023-06-24T09:30:33.441Z,1.50
2023-06-24T09:31:33.472Z,1.70
2023-06-24T09:32:33.751Z,1.80
2023-06-24T09:33:33.428Z,1.50
2023-06-24T09:34:33.397Z,1.50
2023-06-24T09:35:33.480Z,1.50
2023-06-24T09:36:33.390Z,1.60
2023-06-24T09:37:33.395Z,1.50
2023-06-24T09:38:33.372Z,1.50
2023-06-24T09:39:33.357Z,1.70
2023-06-24T09:40:33.588Z,1.50
2023-06-24T09:41:33.326Z,1.50
2023-06-24T09:42:33.348Z,1.40
2023-06-24T09:43:33.353Z,1.80
2023-06-24T09:44:33.350Z,1.50
2023-06-24T09:45:33.639Z,1.60
2023-06-24T09:46:33.398Z,1.90
2023-06-24T09:47:33.384Z,1.60
2023-06-24T09:48:33.255Z,1.70
2023-06-24T09:49:33.238Z,1.40
2023-06-24T09:50:33.275Z,1.60
2023-06-24T09:51:33.212Z,1.80
2023-06-24T09:52:33.241Z,1.60
2023-06-24T09:53:33.204Z,1.70
2023-06-24T09:54:34.897Z,1.60
2023-06-24T09:55:33.313Z,1.50
2023-06-24T09:56:33.182Z,1.40
2023-06-24T09:57:33.204Z,1.50
2023-06-24T09:58:33.156Z,1.70
2023-06-24T09:59:33.135Z,1.70
2023-06-24T10:00:33.333Z,2.00
2023-06-24T10:01:33.159Z,1.90
2023-06-24T10:02:33.264Z,1.60
2023-06-24T10:03:33.258Z,1.50
2023-06-24T10:04:33.098Z,1.50
2023-06-24T10:05:33.255Z,1.40
2023-06-24T10:06:33.105Z,1.50
2023-06-24T10:07:33.094Z,1.70
2023-06-24T10:08:33.041Z,1.60
2023-06-24T10:09:33.040Z,1.50
2023-06-24T10:10:33.223Z,1.40
2023-06-24T10:11:33.049Z,1.50
2023-06-24T10:12:33.031Z,1.80
2023-06-24T10:13:33.015Z,1.70
2023-06-24T10:14:33.000Z,1.50
2023-06-24T10:15:32.990Z,1.40
2023-06-24T10:16:32.963Z,1.60
2023-06-24T10:17:33.097Z,1.60
2023-06-24T10:18:32.996Z,2.10
2023-06-24T10:19:32.962Z,1.70
2023-06-24T10:20:33.136Z,1.70
2023-06-24T10:21:32.941Z,1.50
2023-06-24T10:22:33.098Z,1.60
2023-06-24T10:23:32.886Z,1.60
2023-06-24T10:24:32.935Z,1.80
2023-06-24T10:25:32.875Z,1.70
2023-06-24T10:26:32.879Z,1.60
2023-06-24T10:27:32.853Z,1.60
2023-06-24T10:28:32.848Z,1.60
2023-06-24T10:29:32.857Z,1.40
2023-06-24T10:30:32.916Z,1.90
2023-06-24T10:31:32.852Z,1.70
2023-06-24T10:32:32.825Z,1.60
2023-06-24T10:33:32.812Z,1.70
2023-06-24T10:34:32.816Z,1.60
2023-06-24T10:35:32.755Z,1.60
2023-06-24T10:36:32.771Z,1.50
2023-06-24T10:37:32.810Z,1.60
2023-06-24T10:38:32.748Z,1.70
2023-06-24T10:39:32.732Z,1.60
2023-06-24T10:40:32.814Z,1.50
2023-06-24T10:41:32.691Z,1.70
2023-06-24T10:42:32.770Z,1.70
2023-06-24T10:43:32.689Z,1.30
2023-06-24T10:44:32.686Z,1.50
2023-06-24T10:45:32.689Z,1.50
2023-06-24T10:46:32.690Z,1.40
2023-06-24T10:47:32.688Z,1.40
2023-06-24T10:48:32.665Z,1.60
2023-06-24T10:49:32.662Z,1.60
2023-06-24T10:50:32.707Z,1.50
2023-06-24T10:51:32.600Z,2.00
2023-06-24T10:52:32.594Z,1.60
2023-06-24T10:53:32.592Z,1.50
2023-06-24T10:54:32.589Z,1.50
2023-06-24T10:55:32.586Z,1.60
2023-06-24T10:56:32.576Z,1.80
2023-06-24T10:57:32.606Z,1.50
2023-06-24T10:58:32.542Z,1.40
2023-06-24T10:59:32.525Z,1.50
2023-06-24T11:00:32.524Z,1.50
2023-06-24T11:01:32.580Z,1.40
2023-06-24T11:02:32.592Z,1.70
2023-06-24T11:03:32.561Z,1.70
2023-06-24T11:04:32.464Z,1.40
2023-06-24T11:05:32.463Z,1.60
2023-06-24T11:06:32.482Z,1.70
2023-06-24T11:07:32.436Z,1.60
2023-06-24T11:08:32.445Z,1.60
2023-06-24T11:09:32.450Z,1.40
2023-06-24T11:10:32.511Z,1.60
2023-06-24T11:11:32.419Z,1.50
2023-06-24T11:12:32.455Z,1.50
2023-06-24T11:13:32.369Z,1.40
2023-06-24T11:14:32.373Z,1.60
2023-06-24T11:15:34.161Z,1.50
2023-06-24T11:16:32.374Z,1.70
2023-06-24T11:17:32.352Z,1.80
2023-06-24T11:18:32.327Z,1.70
2023-06-24T11:19:32.333Z,1.50
2023-06-24T11:20:32.360Z,1.50
2023-06-24T11:21:32.311Z,1.60
2023-06-24T11:22:32.330Z,1.90
2023-06-24T11:23:32.260Z,1.80
2023-06-24T11:24:32.266Z,1.50
2023-06-24T11:25:32.259Z,1.40
2023-06-24T11:26:32.259Z,1.80
2023-06-24T11:27:32.245Z,1.90
2023-06-24T11:28:32.239Z,1.60
2023-06-24T11:29:32.215Z,1.40
2023-06-24T11:30:32.270Z,1.50
2023-06-24T11:31:32.259Z,1.50
2023-06-24T11:32:32.225Z,1.80
2023-06-24T11:33:32.166Z,1.60
2023-06-24T11:34:32.160Z,1.50
2023-06-24T11:35:32.165Z,1.60
2023-06-24T11:36:32.136Z,2.00
2023-06-24T11:37:32.162Z,1.50
2023-06-24T11:38:32.118Z,1.60
2023-06-24T11:39:32.126Z,1.70
2023-06-24T11:40:32.201Z,1.20
2023-06-24T11:41:32.096Z,1.50
2023-06-24T11:42:32.079Z,1.40
2023-06-24T11:43:32.077Z,1.60
2023-06-24T11:44:32.094Z,1.70
2023-06-24T11:45:32.045Z,1.60
2023-06-24T11:46:32.082Z,1.30
2023-06-24T11:47:32.063Z,1.40
2023-06-24T11:48:32.011Z,1.10
2023-06-24T11:49:32.037Z,1.40
2023-06-24T11:50:32.034Z,2.40
2023-06-24T11:51:31.987Z,1.70
2023-06-24T11:52:31.979Z,1.80
2023-06-24T11:53:31.986Z,1.30
2023-06-24T11:54:31.975Z,2.10
2023-06-24T11:55:31.967Z,1.60
2023-06-24T11:56:31.939Z,1.40
2023-06-24T11:57:31.918Z,1.60
2023-06-24T11:58:31.936Z,1.40
2023-06-24T11:59:31.924Z,1.20
2023-06-24T12:00:31.961Z,1.40
2023-06-24T12:01:31.921Z,1.60
2023-06-24T12:02:31.890Z,1.50
2023-06-24T12:03:31.963Z,1.50
2023-06-24T12:04:32.007Z,1.60
2023-06-24T12:05:31.862Z,1.30
2023-06-24T12:06:31.872Z,1.60
2023-06-24T12:07:31.868Z,1.60
2023-06-24T12:08:43.177Z,1.60
2023-06-24T12:09:31.814Z,1.20
2023-06-24T12:10:31.800Z,1.40
2023-06-24T12:11:31.800Z,1.40
2023-06-24T12:12:31.809Z,1.70
2023-06-24T12:13:31.772Z,1.80
2023-06-24T12:14:31.781Z,1.30
2023-06-24T12:15:31.773Z,1.50
2023-06-24T12:16:31.779Z,1.60
2023-06-24T12:17:31.792Z,1.60
2023-06-24T12:18:31.736Z,1.30
2023-06-24T12:19:31.766Z,1.30
2023-06-24T12:20:34.994Z,1.60
2023-06-24T12:21:31.723Z,1.80
2023-06-24T12:22:31.728Z,1.30
2023-06-24T12:23:31.655Z,1.50
2023-06-24T12:24:31.655Z,1.60
2023-06-24T12:25:31.713Z,1.40
2023-06-24T12:26:31.648Z,1.60
2023-06-24T12:27:31.621Z,1.30
2023-06-24T12:28:31.623Z,1.50
2023-06-24T12:29:31.617Z,1.80
2023-06-24T12:30:31.609Z,1.40
2023-06-24T12:31:31.606Z,1.80
2023-06-24T12:32:31.625Z,1.50
2023-06-24T12:33:31.565Z,1.60
2023-06-24T12:34:31.582Z,1.70
2023-06-24T12:35:31.560Z,1.50
2023-06-24T12:36:31.550Z,1.60
2023-06-24T12:37:31.572Z,1.70
2023-06-24T12:38:31.515Z,1.70
2023-06-24T12:39:31.549Z,1.50
2023-06-24T12:40:31.551Z,1.70
2023-06-24T12:41:31.482Z,1.60
2023-06-24T12:42:31.491Z,1.60
2023-06-24T12:43:31.563Z,1.20
2023-06-24T12:44:31.458Z,1.70
2023-06-24T12:45:31.452Z,1.50
2023-06-24T12:46:31.480Z,1.80
2023-06-24T12:47:31.472Z,1.50
2023-06-24T12:48:31.420Z,1.60
2023-06-24T12:49:31.437Z,1.40
2023-06-24T12:50:31.408Z,1.60
2023-06-24T12:51:31.396Z,1.50
2023-06-24T12:52:31.421Z,1.40
2023-06-24T12:53:31.387Z,1.60
2023-06-24T12:54:31.384Z,1.50
2023-06-24T12:55:31.368Z,1.60
2023-06-24T12:56:31.351Z,1.30
2023-06-24T12:57:31.337Z,1.60
2023-06-24T12:58:31.327Z,1.60
2023-06-24T12:59:31.314Z,1.80
2023-06-24T13:00:31.301Z,1.60
2023-06-24T13:01:31.511Z,1.50
2023-06-24T13:02:31.318Z,1.40
2023-06-24T13:03:31.265Z,1.40
2023-06-24T13:04:31.299Z,1.50
2023-06-24T13:05:31.241Z,1.60
2023-06-24T13:06:31.241Z,1.20
2023-06-24T13:07:31.318Z,1.70
2023-06-24T13:08:31.225Z,1.70
2023-06-24T13:09:31.219Z,1.60
2023-06-24T13:10:31.213Z,1.40
2023-06-24T13:11:31.186Z,1.30
2023-06-24T13:12:31.232Z,1.40
2023-06-24T13:13:31.175Z,1.30
2023-06-24T13:14:31.175Z,1.40
2023-06-24T13:15:31.144Z,1.60
2023-06-24T13:16:31.130Z,1.60
2023-06-24T13:17:31.183Z,1.60
2023-06-24T13:18:31.155Z,1.80